Time;durP1;ratioP1;P1;durP2;ratioP2;P2;SDS_P1;SDS_P2;PMS_P1;PMS_P2;Temp;Humidity;BMP_temperature;BMP_pressure;BME280_temperature;BME280_humidity;BME280_pressure;Samples;Min_cycle;Max_cycle;Signal;HPM_P1;HPM_P2
2022/01/28 00:05:57;;;;;;;16.20;7.85;;;;;;;6.36;59.97;100689.19;18432816;32;20449;-76
2022/01/28 00:37:03;;;;;;;17.98;8.10;;;;;;;6.78;58.52;100658.81;18231714;32;20122;-75
2022/01/28 00:47:08;;;;;;;18.80;8.32;;;;;;;6.36;59.83;100611.41;18230616;32;20133;-74
2022/01/28 00:57:11;;;;;;;17.77;8.15;;;;;;;6.59;59.03;100665.41;18229706;32;20144;-75
2022/01/28 01:07:16;;;;;;;17.33;7.62;;;;;;;6.65;59.03;100683.69;18274799;32;20102;-75
2022/01/28 01:17:28;;;;;;;17.08;8.13;;;;;;;6.58;59.26;100653.28;18432435;32;20425;-74
2022/01/28 01:27:33;;;;;;;18.40;9.35;;;;;;;6.02;60.89;100653.06;18437367;32;20117;-75
2022/01/28 01:37:36;;;;;;;16.98;8.52;;;;;;;6.49;59.26;100647.06;18436944;32;20112;-74
2022/01/28 01:58:02;;;;;;;17.98;8.50;;;;;;;6.70;58.23;100630.16;18436564;32;20347;-75
2022/01/28 02:08:07;;;;;;;21.17;10.88;;;;;;;6.55;58.70;100616.94;18436094;32;20093;-74
2022/01/28 02:18:10;;;;;;;18.90;8.50;;;;;;;6.65;58.20;100613.66;18435883;32;20110;-75
2022/01/28 02:28:19;;;;;;;15.77;7.03;;;;;;;6.53;58.52;100612.56;18435404;32;20433;-74
2022/01/28 02:38:24;;;;;;;16.27;6.47;;;;;;;6.84;57.02;100585.41;18434922;32;20111;-75
2022/01/28 02:48:30;;;;;;;12.80;5.87;;;;;;;6.64;57.19;100591.16;18435276;32;20133;-75
2022/01/28 02:58:34;;;;;;;14.25;6.05;;;;;;;6.29;57.91;100583.59;18434958;32;20130;-75
2022/01/28 03:08:42;;;;;;;11.25;5.22;;;;;;;6.69;56.97;100594.69;18435537;32;20097;-75
2022/01/28 03:18:51;;;;;;;12.15;4.93;;;;;;;6.75;56.50;100605.16;18434334;32;20093;-74
2022/01/28 03:28:55;;;;;;;10.43;4.78;;;;;;;6.83;56.25;100617.38;18433983;32;20111;-73
2022/01/28 03:38:59;;;;;;;10.57;4.68;;;;;;;6.69;56.44;100611.94;18433033;32;20365;-76
2022/01/28 03:49:04;;;;;;;11.50;4.65;;;;;;;6.79;56.40;100603.50;18433680;32;20158;-75
2022/01/28 03:59:07;;;;;;;8.48;4.07;;;;;;;6.51;56.88;100626.38;18433346;32;20107;-75
2022/01/28 04:19:32;;;;;;;;;;;;;;;6.60;56.59;100633.44;18432684;32;20446;-75
2022/01/28 04:29:37;;;;;;;9.95;4.65;;;;;;;6.10;57.79;100622.16;18432514;32;19977;-75
2022/01/28 04:39:47;;;;;;;9.73;4.03;;;;;;;5.92;58.09;100605.34;18431615;32;20105;-76
2022/01/28 04:50:00;;;;;;;8.63;3.75;;;;;;;6.15;56.86;100627.41;18430174;32;20103;-75
2022/01/28 05:00:13;;;;;;;9.10;3.65;;;;;;;5.78;57.03;100637.84;18431187;32;20093;-77
2022/01/28 05:31:10;;;;;;;7.97;3.15;;;;;;;6.14;57.23;100677.50;18228188;32;20168;-76
2022/01/28 05:41:13;;;;;;;6.87;3.22;;;;;;;6.07;57.13;100723.16;18227539;32;20094;-76
2022/01/28 05:51:18;;;;;;;8.50;3.40;;;;;;;6.51;55.46;100733.56;18298922;32;20096;-74
2022/01/28 06:01:22;;;;;;;5.95;2.70;;;;;;;6.56;55.41;100749.22;18428264;32;20093;-74
2022/01/28 06:11:27;;;;;;;6.82;2.70;;;;;;;6.64;55.34;100742.47;18436215;32;20385;-75
2022/01/28 06:21:30;;;;;;;5.70;2.87;;;;;;;6.94;54.49;100754.28;18435957;32;20121;-74
2022/01/28 06:31:35;;;;;;;6.12;2.80;;;;;;;7.00;54.20;100755.25;18435859;32;20093;-74
2022/01/28 06:41:38;;;;;;;5.70;2.40;;;;;;;7.05;54.15;100759.66;18435184;32;20508;-75
2022/01/28 06:51:43;;;;;;;4.70;2.92;;;;;;;6.87;54.39;100742.03;18435103;32;20150;-75
2022/01/28 07:01:46;;;;;;;6.18;2.85;;;;;;;6.80;53.67;100741.03;18435089;32;20108;-75
2022/01/28 07:11:51;;;;;;;4.22;2.00;;;;;;;6.70;52.71;100727.88;18435433;32;20131;-73
2022/01/28 07:21:54;;;;;;;4.28;1.90;;;;;;;7.24;49.56;100721.03;18433806;32;20106;-74
2022/01/28 07:32:02;;;;;;;4.85;2.17;;;;;;;8.16;45.70;100735.37;18433788;32;20101;-74
2022/01/28 07:42:07;;;;;;;5.20;1.65;;;;;;;8.21;45.55;100714.63;18433719;32;20141;-76
2022/01/28 07:52:12;;;;;;;3.80;2.05;;;;;;;8.45;44.39;100706.25;18432741;32;20093;-75
2022/01/28 08:02:20;;;;;;;3.42;1.80;;;;;;;7.90;45.83;100744.56;18433103;32;20108;-75
2022/01/28 08:12:25;;;;;;;5.18;1.75;;;;;;;8.11;45.39;100758.72;18432241;32;20093;-75
2022/01/28 08:22:28;;;;;;;2.20;1.40;;;;;;;7.56;46.25;100749.25;18431238;32;20116;-75
2022/01/28 08:32:33;;;;;;;3.15;1.52;;;;;;;7.42;46.36;100745.56;18431701;32;20365;-75
2022/01/28 08:42:37;;;;;;;6.22;1.45;;;;;;;7.61;45.46;100737.22;18431676;32;20112;-73
2022/01/28 08:52:46;;;;;;;3.85;1.70;;;;;;;7.64;44.50;100758.03;18431045;32;20093;-73
2022/01/28 09:02:51;;;;;;;13.52;5.93;;;;;;;7.48;44.50;100767.31;18430724;32;20162;-72
2022/01/28 09:23:25;;;;;;;4.40;1.95;;;;;;;8.73;41.47;100746.50;18734011;31;196761;-74
2022/01/28 09:33:29;;;;;;;4.85;1.40;;;;;;;8.73;41.47;100746.50;18677060;31;20096;-73
2022/01/28 09:43:34;;;;;;;4.95;1.40;;;;;;;9.04;40.62;100739.88;18676017;31;20129;-73
2022/01/28 09:53:37;;;;;;;6.45;1.52;;;;;;;9.35;39.41;100766.19;18675878;31;20107;-75
2022/01/28 10:03:41;;;;;;;5.70;2.62;;;;;;;8.77;39.89;100762.16;18675706;31;20096;-76
2022/01/28 10:13:49;;;;;;;4.43;1.55;;;;;;;8.80;39.68;100803.84;18674834;31;20095;-75
2022/01/28 10:24:15;;;;;;;5.18;1.42;;;;;;;8.58;39.87;100803.59;18674864;31;20104;-76
2022/01/28 10:34:27;;;;;;;3.50;1.50;;;;;;;8.38;40.70;100800.69;18632572;31;20092;-75
2022/01/28 10:44:32;;;;;;;6.15;1.80;;;;;;;8.57;39.85;100814.84;18630278;31;20114;-76
2022/01/28 10:54:36;;;;;;;4.37;1.58;;;;;;;8.83;39.69;100825.56;18629982;31;20088;-75
2022/01/28 11:04:41;;;;;;;4.62;1.30;;;;;;;8.77;39.75;100817.69;18629550;31;20100;-75
2022/01/28 11:14:44;;;;;;;2.92;1.20;;;;;;;8.97;38.20;100828.34;18628862;31;20088;-75
2022/01/28 11:25:07;;;;;;;3.08;1.75;;;;;;;8.86;38.29;100843.81;18629952;31;20088;-75
2022/01/28 11:35:10;;;;;;;3.42;1.50;;;;;;;9.34;37.67;100845.22;18628623;31;20092;-75
2022/01/28 11:45:15;;;;;;;3.42;1.20;;;;;;;9.04;38.50;100836.22;18627283;31;20092;-74
2022/01/28 11:55:34;;;;;;;10.07;1.92;;;;;;;8.89;39.47;100845.59;18628000;31;20114;-75
2022/01/28 12:05:56;;;;;;;4.93;1.83;;;;;;;8.45;41.18;100858.03;18628004;31;20084;-74
2022/01/28 12:16:01;;;;;;;;;;;;;;;8.46;41.42;100848.50;18627526;31;20095;-75
2022/01/28 12:26:07;;;;;;;4.12;1.73;;;;;;;8.69;41.39;100856.63;18627513;31;20367;-76
2022/01/28 12:36:12;;;;;;;6.93;1.60;;;;;;;8.86;41.14;100858.59;18626838;31;20103;-74
2022/01/28 12:46:17;;;;;;;7.72;2.58;;;;;;;8.28;42.69;100844.78;18626341;31;20096;-75
2022/01/28 12:56:30;;;;;;;4.60;2.03;;;;;;;7.94;43.80;100833.87;18625732;31;20111;-75
2022/01/28 13:08:24;;;;;;;6.30;2.20;;;;;;;8.37;43.67;100844.03;18625565;31;20122;-75
2022/01/28 13:17:24;;;;;;;7.80;1.95;;;;;;;8.93;42.06;100836.09;18624672;31;20100;-75
2022/01/28 13:27:44;;;;;;;4.87;1.83;;;;;;;9.33;41.18;100851.28;18624571;31;20096;-75
2022/01/28 13:37:49;;;;;;;4.00;1.70;;;;;;;9.21;40.82;100868.53;18623974;31;20141;-74
2022/01/28 13:47:54;;;;;;;5.70;2.00;;;;;;;8.91;41.07;100875.13;18622999;31;20145;-75
2022/01/28 13:58:01;;;;;;;4.80;1.70;;;;;;;9.19;40.88;100879.78;18622655;31;20079;-75
2022/01/28 14:08:06;;;;;;;7.90;2.28;;;;;;;8.97;41.28;100880.41;18629511;31;20131;-74
2022/01/28 14:18:09;;;;;;;5.32;1.92;;;;;;;8.60;42.41;100888.63;18630591;31;20353;-74
2022/01/28 14:28:36;;;;;;;8.32;2.90;;;;;;;8.22;43.65;100901.03;18630575;31;20139;-74
2022/01/28 14:38:38;;;;;;;17.35;6.78;;;;;;;8.28;43.62;100909.81;18630229;31;20156;-74
2022/01/28 14:48:42;;;;;;;13.43;5.03;;;;;;;8.42;43.60;100927.38;18629913;31;20152;-74
2022/01/28 14:58:46;;;;;;;8.77;2.20;;;;;;;8.52;43.33;100939.69;18630776;31;20460;-74
2022/01/28 15:08:51;;;;;;;7.70;2.37;;;;;;;8.00;44.76;100960.50;18629455;31;20103;-74
2022/01/28 15:18:54;;;;;;;6.03;2.40;;;;;;;7.70;45.18;100972.09;18627777;31;20092;-74
2022/01/28 15:29:04;;;;;;;9.07;3.30;;;;;;;7.82;44.95;100954.12;18606514;31;20114;-75
2022/01/28 15:39:07;;;;;;;9.05;2.92;;;;;;;7.74;45.15;100958.31;18562361;32;20092;-74
2022/01/28 15:49:12;;;;;;;6.60;2.20;;;;;;;7.81;45.11;100980.97;18562657;32;20115;-75
2022/01/28 15:59:15;;;;;;;8.80;3.20;;;;;;;7.17;46.82;100991.81;18562312;32;20454;-74
2022/01/28 16:09:21;;;;;;;6.62;2.40;;;;;;;7.29;46.53;100981.69;18563052;32;20088;-74
2022/01/28 16:19:25;;;;;;;7.30;2.30;;;;;;;7.31;46.50;101007.69;18561400;31;20105;-74
2022/01/28 16:29:29;;;;;;;9.30;2.35;;;;;;;7.03;47.87;101012.28;18560968;32;20104;-74
2022/01/28 16:39:36;;;;;;;7.35;2.35;;;;;;;6.93;47.94;101008.62;18561382;32;20371;-74
2022/01/28 16:49:45;;;;;;;6.97;2.30;;;;;;;7.20;47.85;101018.72;18561001;32;20719;-75
2022/01/28 16:59:49;;;;;;;7.70;2.22;;;;;;;7.07;48.35;101050.47;18561748;32;20065;-73
2022/01/28 17:10:03;;;;;;;7.00;2.53;;;;;;;6.98;48.56;101047.66;18560390;32;20122;-74
2022/01/28 17:20:09;;;;;;;12.60;3.83;;;;;;;6.81;49.18;101063.72;18559323;31;20444;-75
2022/01/28 17:30:15;;;;;;;8.80;3.28;;;;;;;6.70;49.64;101068.63;18580092;31;20113;-75
2022/01/28 17:40:19;;;;;;;7.62;2.90;;;;;;;6.82;49.41;101077.56;18628262;31;20102;-73
2022/01/28 17:50:24;;;;;;;8.43;2.97;;;;;;;6.58;49.79;101073.53;18631960;31;20114;-74
2022/01/28 18:00:29;;;;;;;8.95;2.85;;;;;;;6.52;50.15;101080.31;18631440;31;20087;-74
2022/01/28 18:10:34;;;;;;;8.77;3.17;;;;;;;6.15;51.04;101107.84;18629894;31;20096;-75
2022/01/28 18:20:38;;;;;;;9.50;3.60;;;;;;;6.76;49.54;101127.59;18628118;31;20106;-75
2022/01/28 18:30:42;;;;;;;10.60;4.00;;;;;;;6.41;50.54;101141.41;18630581;31;20104;-74
2022/01/28 18:40:46;;;;;;;8.52;2.62;;;;;;;6.39;50.66;101140.50;18631553;31;20176;-70
2022/01/28 18:50:51;;;;;;;7.07;2.80;;;;;;;6.25;51.27;101156.53;18629604;31;20114;-73
2022/01/28 19:00:54;;;;;;;11.85;4.12;;;;;;;6.13;51.56;101163.97;18629817;31;20100;-73
2022/01/28 19:10:59;;;;;;;7.00;2.45;;;;;;;6.32;51.32;101164.50;18629449;31;20444;-72
2022/01/28 19:21:02;;;;;;;7.22;2.60;;;;;;;6.10;51.76;101179.44;18628916;31;20096;-72
2022/01/28 19:31:10;;;;;;;10.95;3.58;;;;;;;6.28;51.14;101209.34;18610083;31;20464;-71
2022/01/28 19:41:13;;;;;;;8.80;2.50;;;;;;;6.13;51.89;101178.66;18563220;32;20115;-73
2022/01/28 19:51:18;;;;;;;9.15;2.85;;;;;;;5.96;51.92;101213.56;18562824;32;20092;-74
2022/01/28 20:01:21;;;;;;;8.88;3.03;;;;;;;5.84;52.08;101236.53;18562076;32;20080;-74
2022/01/28 20:11:26;;;;;;;9.15;2.83;;;;;;;6.16;51.49;101257.37;18562347;32;20173;-74
2022/01/28 20:21:30;;;;;;;8.73;2.87;;;;;;;6.20;51.27;101254.06;18561542;32;20131;-74
2022/01/28 20:31:35;;;;;;;10.20;3.10;;;;;;;6.31;51.02;101266.47;18561823;32;20144;-74
2022/01/28 20:41:39;;;;;;;10.70;3.33;;;;;;;6.02;51.31;101277.72;18561621;32;20118;-74
2022/01/28 20:51:44;;;;;;;9.75;3.12;;;;;;;6.14;51.23;101276.34;18561087;32;20483;-74
2022/01/28 21:01:47;;;;;;;8.23;2.92;;;;;;;5.90;51.97;101280.78;18560591;32;20085;-74
2022/01/28 21:11:52;;;;;;;11.52;3.17;;;;;;;6.02;51.66;101282.03;18559672;32;20114;-74
2022/01/28 21:21:55;;;;;;;9.43;2.70;;;;;;;6.30;50.93;101307.06;18558932;32;20096;-74
2022/01/28 21:31:59;;;;;;;19.50;6.68;;;;;;;6.02;51.16;101303.63;18308785;31;20140;-73
2022/01/28 21:42:03;;;;;;;11.70;3.65;;;;;;;5.91;51.25;101303.28;18359016;32;20093;-74
2022/01/28 21:52:08;;;;;;;11.32;3.62;;;;;;;5.99;51.26;101307.84;18364296;32;20513;-73
2022/01/28 22:02:11;;;;;;;10.27;2.62;;;;;;;5.48;52.72;101305.34;18363714;32;20469;-74
2022/01/28 22:12:16;;;;;;;11.45;2.95;;;;;;;5.68;51.04;101312.91;18363339;32;20242;-72
2022/01/28 22:22:19;;;;;;;11.25;3.15;;;;;;;5.59;51.75;101330.72;18363412;32;20097;-72
2022/01/28 22:32:24;;;;;;;12.40;3.25;;;;;;;5.74;51.07;101351.09;18372933;32;20095;-72
2022/01/28 22:42:27;;;;;;;14.35;3.62;;;;;;;5.81;50.53;101360.84;18371299;32;20093;-72
2022/01/28 22:52:32;;;;;;;8.38;2.67;;;;;;;5.49;50.96;101381.34;18370919;32;20093;-72
2022/01/28 23:02:35;;;;;;;4.65;1.70;;;;;;;5.49;51.29;101378.75;18371032;32;20101;-72
2022/01/28 23:12:40;;;;;;;2.20;1.40;;;;;;;5.40;46.11;101385.34;18370459;32;20359;-72
2022/01/28 23:22:43;;;;;;;4.20;1.45;;;;;;;4.99;45.09;101395.12;18370132;32;20101;-72
2022/01/28 23:32:48;;;;;;;4.00;1.27;;;;;;;4.61;43.97;101381.63;18371332;32;20089;-71
2022/01/28 23:42:51;;;;;;;2.17;1.00;;;;;;;4.55;43.15;101395.22;18369882;32;20129;-71
2022/01/28 23:52:56;;;;;;;2.97;1.50;;;;;;;4.79;42.36;101413.37;18369774;32;20119;-72
